Whitefish, Canada
Current Conditions -  °F | °C
As of 9:00 AM on Wednesday 28 Jan 2015 (Local Time) from CYSB Reporting Station
Clear Clear  
Wind Chill: -20°   Ceiling: Unl
Heat Index: -6°   Visibility: 20mi
Dew Point: -11°   Wind: 7mph
Humidity: 77%   Direction: 300°WNW
Pressure: 30.23"   Gusts: NA
Location:  46.37°N, 81.32°W
Report Text: CYSB 281400Z 30006KT 20SM SKC M21/M24 A3023 RMK SLP272
Loading
Personal Weather Stations






























Interactive Weather Map New forecast layout! Learn more

10-Day Weather Forecast

Advertisements
Track Severe Weather on mobile